Time;durP1;ratioP1;P1;durP2;ratioP2;P2;SDS_P1;SDS_P2;PMS_P1;PMS_P2;Temp;Humidity;BMP_temperature;BMP_pressure;BME280_temperature;BME280_humidity;BME280_pressure;Samples;Min_cycle;Max_cycle;Signal;HPM_P1;HPM_P2
2023/01/11 00:02:25;;;;;;;59.60;27.53;;;;;;;4.65;100.00;101015.69;5108490;55;1140944;-71
2023/01/11 00:07:31;;;;;;;51.50;20.97;;;;;;;4.62;100.00;101012.36;5108396;55;1143051;-69
2023/01/11 00:12:37;;;;;;;31.97;15.83;;;;;;;4.67;100.00;101013.01;5128399;56;1142929;-72
2023/01/11 00:17:42;;;;;;;40.53;17.70;;;;;;;4.72;100.00;101017.59;5086537;56;1143142;-71
2023/01/11 00:22:49;;;;;;;36.83;19.87;;;;;;;4.72;100.00;101011.04;5023359;56;1143015;-71
2023/01/11 00:27:55;;;;;;;42.25;17.15;;;;;;;4.75;100.00;101009.56;5043178;57;1142813;-74
2023/01/11 00:33:03;;;;;;;34.25;17.65;;;;;;;4.70;100.00;101004.56;5048191;56;1141005;-73
2023/01/11 00:38:42;;;;;;;39.13;16.57;;;;;;;4.60;100.00;101008.03;5047657;56;1140876;-73
2023/01/11 00:48:40;;;;;;;45.52;20.50;;;;;;;4.54;100.00;101012.26;5104146;55;1143052;-71
2023/01/11 00:53:47;;;;;;;30.20;15.67;;;;;;;4.54;100.00;101011.41;5043607;56;1142968;-69
2023/01/11 00:58:52;;;;;;;37.67;18.63;;;;;;;4.54;100.00;100997.00;5062733;56;1143107;-70
2023/01/11 01:03:59;;;;;;;37.65;16.67;;;;;;;4.57;100.00;100998.17;5048695;56;1142985;-68
2023/01/11 01:09:06;;;;;;;28.50;15.83;;;;;;;4.58;100.00;101005.94;5044103;56;1142832;-68
2023/01/11 01:14:25;;;;;;;39.97;16.47;;;;;;;4.56;100.00;101002.56;5042606;56;1143159;-69
2023/01/11 01:19:32;;;;;;;30.50;13.47;;;;;;;4.46;100.00;101007.80;4934477;57;1140999;-68
2023/01/11 01:24:37;;;;;;;32.08;15.10;;;;;;;4.43;100.00;101001.88;4881012;57;1142977;-69
2023/01/11 01:29:44;;;;;;;37.67;16.40;;;;;;;4.47;100.00;101002.95;4932234;57;1142971;-70
2023/01/11 01:34:51;;;;;;;23.53;12.93;;;;;;;4.51;100.00;101003.22;4930601;56;1142976;-70
2023/01/11 01:39:57;;;;;;;28.77;12.28;;;;;;;4.53;100.00;100990.91;4989835;57;1144572;-73
2023/01/11 01:45:21;;;;;;;28.20;12.70;;;;;;;4.49;100.00;100985.87;4962015;57;1143072;-70
2023/01/11 01:50:47;;;;;;;26.20;10.53;;;;;;;4.47;100.00;100984.62;4916865;57;1143163;-71
2023/01/11 01:55:56;;;;;;;24.33;11.53;;;;;;;4.46;100.00;100988.16;4943268;56;1143025;-69
2023/01/11 02:01:51;;;;;;;30.53;12.17;;;;;;;4.41;100.00;100981.45;4971079;56;1142998;-74
2023/01/11 02:06:11;;;;;;;29.47;14.17;;;;;;;4.38;100.00;100973.27;4939871;56;1140986;-69
2023/01/11 02:11:29;;;;;;;28.23;12.40;;;;;;;4.30;100.00;100957.03;4951817;56;1140711;-74
2023/01/11 02:16:36;;;;;;;23.27;11.13;;;;;;;4.24;100.00;100959.48;5030700;55;1141177;-69
2023/01/11 02:21:55;;;;;;;30.93;12.10;;;;;;;4.17;100.00;100950.19;5142569;55;1140887;-75
2023/01/11 02:27:23;;;;;;;23.22;11.18;;;;;;;4.11;100.00;100943.93;5122391;55;1143124;-72
2023/01/11 02:32:52;;;;;;;21.13;10.60;;;;;;;4.08;100.00;100937.97;5122507;55;1142886;-71
2023/01/11 02:38:02;;;;;;;22.27;11.23;;;;;;;4.06;100.00;100934.11;5068717;55;1143052;-72
2023/01/11 02:49:19;;;;;;;30.90;12.37;;;;;;;4.10;100.00;100923.05;5092550;56;1140914;-72
2023/01/11 02:54:26;;;;;;;26.23;11.47;;;;;;;4.02;100.00;100923.38;5099842;55;1140789;-69
2023/01/11 02:59:35;;;;;;;30.37;11.63;;;;;;;3.94;100.00;100915.03;5107698;55;1140803;-69
2023/01/11 03:04:41;;;;;;;21.07;10.37;;;;;;;3.87;100.00;100915.74;5142726;55;1140959;-70
2023/01/11 03:10:25;;;;;;;29.67;11.90;;;;;;;3.85;100.00;100909.72;5122958;55;1140898;-72
2023/01/11 03:16:07;;;;;;;17.57;9.60;;;;;;;3.82;100.00;100909.84;5132629;55;1143011;-75
2023/01/11 03:21:41;;;;;;;22.30;10.83;;;;;;;3.79;100.00;100898.23;5030858;55;1140923;-72
2023/01/11 03:27:07;;;;;;;;;;;;;;;3.76;100.00;100889.20;5005318;56;1142931;-69
2023/01/11 03:32:46;;;;;;;27.63;10.97;;;;;;;3.74;100.00;100884.95;5061696;57;974084;-71
2023/01/11 03:38:06;;;;;;;25.68;10.65;;;;;;;3.68;100.00;100880.83;5043728;55;1138620;-71
2023/01/11 03:43:15;;;;;;;19.67;10.47;;;;;;;3.60;100.00;100865.94;4995348;56;1140801;-69
2023/01/11 03:48:33;;;;;;;24.73;10.13;;;;;;;3.54;100.00;100857.89;5121808;55;1140735;-71
2023/01/11 03:53:42;;;;;;;18.80;9.45;;;;;;;3.54;100.00;100857.03;5101443;55;1142878;-69
2023/01/11 03:58:48;;;;;;;19.97;10.43;;;;;;;3.52;100.00;100851.02;5101497;56;1140828;-71
2023/01/11 04:03:54;;;;;;;22.67;10.80;;;;;;;3.47;100.00;100838.17;5121642;56;1141460;-73
2023/01/11 04:09:00;;;;;;;21.84;10.02;;;;;;;3.41;100.00;100835.80;5101545;56;1140842;-71
2023/01/11 04:14:06;;;;;;;29.72;10.38;;;;;;;3.39;100.00;100836.78;5126011;55;1140854;-72
2023/01/11 04:19:11;;;;;;;18.02;9.20;;;;;;;3.36;100.00;100828.61;5146612;56;1141166;-70
2023/01/11 04:24:17;;;;;;;21.10;10.50;;;;;;;3.37;100.00;100818.55;5101531;55;1141094;-71
2023/01/11 04:29:23;;;;;;;24.50;11.90;;;;;;;3.34;100.00;100814.78;5101577;56;1141019;-72
2023/01/11 04:34:29;;;;;;;21.57;10.97;;;;;;;3.32;100.00;100805.30;5101907;56;1141064;-75
2023/01/11 04:39:36;;;;;;;22.53;12.67;;;;;;;3.27;100.00;100785.03;5171764;55;1140775;-72
2023/01/11 04:44:42;;;;;;;26.83;10.90;;;;;;;3.23;100.00;100775.16;5169838;55;1140885;-71
2023/01/11 04:49:48;;;;;;;23.43;11.73;;;;;;;3.26;100.00;100782.87;5188300;55;1142846;-67
2023/01/11 04:54:54;;;;;;;26.17;11.97;;;;;;;3.25;100.00;100772.03;5180692;55;1140827;-71
2023/01/11 05:00:00;;;;;;;21.40;10.15;;;;;;;3.20;100.00;100767.94;5188691;55;1140831;-68
2023/01/11 05:05:07;;;;;;;18.33;9.77;;;;;;;3.16;100.00;100772.44;5137951;55;1140939;-72
2023/01/11 05:10:13;;;;;;;21.53;9.37;;;;;;;3.15;100.00;100755.05;5128069;55;1138807;-70
2023/01/11 05:15:19;;;;;;;26.43;11.40;;;;;;;3.10;100.00;100742.64;5130391;55;1140871;-68
2023/01/11 05:20:26;;;;;;;19.87;11.47;;;;;;;3.06;100.00;100748.90;5137035;55;1140880;-72
2023/01/11 05:25:31;;;;;;;29.82;12.30;;;;;;;3.00;100.00;100738.27;5184455;55;1140960;-68
2023/01/11 05:30:37;;;;;;;24.10;11.63;;;;;;;2.93;100.00;100746.42;5154337;55;1140926;-69
2023/01/11 05:35:43;;;;;;;22.93;9.67;;;;;;;2.88;100.00;100736.19;5058338;56;1140927;-68
2023/01/11 05:41:02;;;;;;;19.77;8.77;;;;;;;2.84;100.00;100737.23;5102431;55;1139011;-68
2023/01/11 05:46:07;;;;;;;12.43;8.40;;;;;;;2.83;100.00;100729.00;5154645;55;1138907;-73
2023/01/11 05:51:13;;;;;;;50.53;19.67;;;;;;;2.85;100.00;100728.94;5097707;56;1138666;-69
2023/01/11 05:56:20;;;;;;;24.40;13.37;;;;;;;2.84;100.00;100730.70;5096942;56;1140839;-70
2023/01/11 06:01:27;;;;;;;187.40;72.35;;;;;;;2.81;100.00;100723.84;5101612;56;1141013;-69
2023/01/11 06:06:33;;;;;;;53.17;30.37;;;;;;;2.81;100.00;100726.45;5070560;56;1143186;-72
2023/01/11 06:11:39;;;;;;;20.00;8.20;;;;;;;2.86;100.00;100722.34;5067394;56;1140965;-71
2023/01/11 06:16:45;;;;;;;15.03;7.57;;;;;;;2.91;100.00;100727.35;5113949;55;1138789;-68
2023/01/11 06:21:50;;;;;;;25.17;10.00;;;;;;;2.89;100.00;100723.53;5105250;55;1138747;-66
2023/01/11 06:26:56;;;;;;;18.23;8.87;;;;;;;2.89;100.00;100724.83;5108880;55;1140995;-70
2023/01/11 06:32:02;;;;;;;18.03;8.80;;;;;;;2.91;100.00;100711.22;5028014;56;1142208;-71
2023/01/11 06:37:08;;;;;;;32.78;17.00;;;;;;;2.92;100.00;100706.84;5137393;55;1138832;-71
2023/01/11 06:42:14;;;;;;;20.43;10.67;;;;;;;2.92;100.00;100706.84;5050899;56;1140880;-69
2023/01/11 06:47:20;;;;;;;18.13;8.40;;;;;;;2.96;100.00;100703.19;5096395;56;1140893;-68
2023/01/11 06:52:27;;;;;;;20.10;8.35;;;;;;;2.97;100.00;100701.83;5117101;56;1139037;-71
2023/01/11 06:57:32;;;;;;;17.00;8.73;;;;;;;3.00;100.00;100700.39;5122068;55;1138724;-71
2023/01/11 07:02:38;;;;;;;17.47;8.23;;;;;;;3.03;100.00;100705.95;5101596;56;1138778;-69
2023/01/11 07:07:44;;;;;;;11.03;6.47;;;;;;;3.08;100.00;100702.66;5102246;56;1138869;-70
2023/01/11 07:12:50;;;;;;;17.70;8.67;;;;;;;3.08;100.00;100686.98;5039246;56;1138855;-66
2023/01/11 07:17:59;;;;;;;18.07;7.53;;;;;;;3.07;100.00;100686.12;5115021;55;1138901;-70
2023/01/11 07:23:06;;;;;;;16.93;7.90;;;;;;;3.06;100.00;100684.42;5025676;55;1138878;-66
2023/01/11 07:28:12;;;;;;;18.70;7.70;;;;;;;3.08;100.00;100686.52;4994002;56;1138693;-70
2023/01/11 07:33:18;;;;;;;13.23;6.23;;;;;;;3.08;100.00;100672.15;5007311;56;1138904;-70
2023/01/11 07:38:24;;;;;;;22.27;7.87;;;;;;;3.11;100.00;100685.55;5043807;56;1138731;-70
2023/01/11 07:43:32;;;;;;;14.87;7.03;;;;;;;3.12;100.00;100686.78;5029829;55;1138838;-66
2023/01/11 07:48:38;;;;;;;12.83;7.60;;;;;;;3.17;100.00;100687.44;5080243;55;1138874;-72
2023/01/11 07:53:44;;;;;;;15.33;7.47;;;;;;;3.27;100.00;100686.56;5019223;56;1138846;-73
2023/01/11 07:58:50;;;;;;;15.10;7.33;;;;;;;3.32;100.00;100685.91;5047041;54;1138702;-71
2023/01/11 08:03:57;;;;;;;15.43;7.45;;;;;;;3.33;100.00;100685.45;5107548;55;1138775;-70
2023/01/11 08:09:03;;;;;;;14.03;7.78;;;;;;;3.36;100.00;100677.47;5046811;56;1138820;-69
2023/01/11 08:19:35;;;;;;;13.05;6.78;;;;;;;3.35;100.00;100663.55;4992028;56;1141075;-69
2023/01/11 08:24:40;;;;;;;22.33;10.20;;;;;;;3.37;100.00;100668.69;4960350;57;1138787;-71
2023/01/11 08:29:46;;;;;;;17.37;9.57;;;;;;;3.38;100.00;100661.23;4934081;57;1141066;-68
2023/01/11 08:34:52;;;;;;;15.43;7.73;;;;;;;3.38;100.00;100651.63;4953506;57;1138906;-72
2023/01/11 08:39:58;;;;;;;38.73;10.20;;;;;;;3.40;100.00;100651.09;4900388;58;1138969;-73
2023/01/11 08:45:05;;;;;;;27.17;15.15;;;;;;;3.45;100.00;100646.97;4915916;57;1140903;-72
2023/01/11 08:50:14;;;;;;;21.90;8.30;;;;;;;3.47;100.00;100638.61;4961546;58;1140812;-66
2023/01/11 08:55:20;;;;;;;14.73;6.83;;;;;;;3.49;100.00;100639.39;4981559;55;1138849;-71
2023/01/11 09:00:25;;;;;;;15.50;8.67;;;;;;;3.56;100.00;100638.62;4962583;56;1138821;-70
2023/01/11 09:05:31;;;;;;;14.67;6.97;;;;;;;3.58;100.00;100640.70;4961991;56;1138955;-71
2023/01/11 09:10:37;;;;;;;19.75;7.92;;;;;;;3.59;100.00;100651.10;4944031;57;1138872;-72
2023/01/11 09:15:45;;;;;;;13.53;6.13;;;;;;;3.63;100.00;100645.28;4979576;57;1138736;-71
2023/01/11 09:20:53;;;;;;;22.30;10.13;;;;;;;3.67;100.00;100639.80;5016841;57;1138899;-67
2023/01/11 09:25:59;;;;;;;22.77;8.83;;;;;;;3.71;100.00;100636.59;4966094;57;1140843;-71
2023/01/11 09:31:05;;;;;;;27.30;10.95;;;;;;;3.76;100.00;100636.77;5024145;56;1138911;-70
2023/01/11 09:36:13;;;;;;;18.60;9.08;;;;;;;3.77;100.00;100624.55;5018245;56;1140845;-68
2023/01/11 09:41:29;;;;;;;9.57;6.00;;;;;;;3.81;100.00;100612.56;5006313;56;1138948;-70
2023/01/11 09:46:37;;;;;;;28.70;11.43;;;;;;;3.88;100.00;100615.25;5082061;56;1136729;-67
2023/01/11 09:51:43;;;;;;;14.70;4.90;;;;;;;3.93;100.00;100610.27;5128900;56;1140847;-65
2023/01/11 09:56:56;;;;;;;11.60;5.50;;;;;;;3.94;100.00;100618.50;5113234;56;1138716;-70
2023/01/11 10:02:10;;;;;;;12.23;5.27;;;;;;;3.98;100.00;100600.40;5085271;56;1138759;-70
2023/01/11 10:07:53;;;;;;;20.27;8.85;;;;;;;4.00;100.00;100588.94;5083341;56;1138947;-69
2023/01/11 10:13:24;;;;;;;12.05;6.03;;;;;;;4.04;100.00;100573.48;5065541;55;1138796;-71
2023/01/11 10:19:04;;;;;;;27.70;11.93;;;;;;;4.10;100.00;100547.48;5078258;56;1138782;-65
2023/01/11 10:24:39;;;;;;;31.07;17.37;;;;;;;4.18;100.00;100551.84;4987656;56;1140901;-69
2023/01/11 10:35:32;;;;;;;36.40;14.70;;;;;;;4.24;100.00;100554.16;5073908;55;1138796;-73
2023/01/11 10:40:36;;;;;;;14.63;7.57;;;;;;;4.31;100.00;100546.36;5116575;55;1140732;-71
2023/01/11 10:45:54;;;;;;;22.77;8.03;;;;;;;4.35;100.00;100541.83;5084532;55;1138688;-70
2023/01/11 10:51:28;;;;;;;133.23;63.20;;;;;;;4.35;100.00;100520.88;5028811;56;1138869;-69
2023/01/11 10:56:53;;;;;;;19.12;8.63;;;;;;;4.41;100.00;100509.64;5028278;56;1143135;-72
2023/01/11 11:02:27;;;;;;;13.53;6.33;;;;;;;4.44;100.00;100518.61;5130763;55;1139034;-68
2023/01/11 11:07:49;;;;;;;11.23;4.90;;;;;;;4.46;100.00;100520.69;5136366;55;1139155;-73
2023/01/11 11:13:25;;;;;;;16.80;6.60;;;;;;;4.52;100.00;100505.14;5116966;55;1138702;-66
2023/01/11 11:18:30;;;;;;;12.37;5.22;;;;;;;4.52;100.00;100498.13;5079362;55;1139017;-70
2023/01/11 11:23:38;;;;;;;26.70;8.33;;;;;;;4.54;100.00;100491.50;5122746;55;1138776;-69
2023/01/11 11:28:59;;;;;;;19.00;9.40;;;;;;;4.58;100.00;100475.52;5118067;55;1138769;-68
2023/01/11 11:34:14;;;;;;;14.03;7.20;;;;;;;4.62;100.00;100466.19;5115445;55;1138853;-65
2023/01/11 11:39:29;;;;;;;23.17;9.00;;;;;;;4.62;100.00;100459.18;5157867;55;1138935;-71
2023/01/11 11:44:35;;;;;;;25.80;15.03;;;;;;;4.64;100.00;100445.55;5141343;55;1139084;-71
2023/01/11 11:49:41;;;;;;;15.63;6.40;;;;;;;4.66;100.00;100444.16;5154862;55;1140866;-70
2023/01/11 11:54:56;;;;;;;10.33;5.53;;;;;;;4.69;100.00;100444.84;5157397;55;1138675;-68
2023/01/11 12:00:10;;;;;;;11.60;6.92;;;;;;;4.75;100.00;100429.23;5156906;55;1138810;-71
2023/01/11 12:05:16;;;;;;;21.17;7.67;;;;;;;4.77;100.00;100428.22;5103384;55;1138917;-68
2023/01/11 12:10:25;;;;;;;11.90;4.70;;;;;;;4.80;100.00;100414.11;5130084;55;1138959;-67
2023/01/11 12:15:56;;;;;;;18.30;5.87;;;;;;;4.85;100.00;100400.30;5113869;55;1138830;-66
2023/01/11 12:21:21;;;;;;;15.17;5.50;;;;;;;4.86;100.00;100388.89;5104096;55;1138892;-69
2023/01/11 12:26:31;;;;;;;8.07;4.83;;;;;;;4.87;100.00;100380.95;5129576;55;1138821;-69
2023/01/11 12:31:57;;;;;;;22.70;7.60;;;;;;;4.91;100.00;100376.35;5117136;55;1136988;-70
2023/01/11 12:37:53;;;;;;;28.57;12.60;;;;;;;4.93;100.00;100364.02;5091071;56;1139016;-68
2023/01/11 12:43:29;;;;;;;19.03;12.10;;;;;;;4.97;100.00;100356.36;5131115;55;1140775;-70
2023/01/11 12:48:54;;;;;;;21.37;10.20;;;;;;;5.01;100.00;100357.88;5125833;55;1140849;-71
2023/01/11 12:54:19;;;;;;;21.73;8.60;;;;;;;5.04;100.00;100355.06;5133604;55;1140945;-66
2023/01/11 12:59:35;;;;;;;17.83;6.77;;;;;;;5.08;100.00;100350.49;5061325;56;1138747;-71
2023/01/11 13:05:00;;;;;;;18.93;8.53;;;;;;;5.10;100.00;100328.97;5112619;55;1138864;-66
2023/01/11 13:10:27;;;;;;;15.97;7.50;;;;;;;5.12;100.00;100324.49;5132824;55;1138977;-72
2023/01/11 13:15:50;;;;;;;62.08;20.00;;;;;;;5.19;100.00;100321.91;5137305;55;1138855;-74
2023/01/11 13:21:04;;;;;;;45.83;18.37;;;;;;;5.20;100.00;100327.03;5168431;55;1141100;-68
2023/01/11 13:26:20;;;;;;;58.02;20.90;;;;;;;5.21;100.00;100327.41;5127567;55;1140920;-70
2023/01/11 13:31:26;;;;;;;42.53;14.40;;;;;;;5.25;100.00;100331.55;5126780;55;1140854;-70
2023/01/11 13:36:42;;;;;;;32.00;13.70;;;;;;;5.25;100.00;100328.08;5123155;55;1140962;-73
2023/01/11 13:41:59;;;;;;;31.27;13.20;;;;;;;5.26;100.00;100325.37;5103979;56;1141084;-67
2023/01/11 13:47:37;;;;;;;18.43;7.67;;;;;;;5.32;100.00;100324.64;5101742;55;1140911;-71
2023/01/11 13:53:08;;;;;;;37.43;15.93;;;;;;;5.34;100.00;100317.53;5160820;55;1138994;-70
2023/01/11 13:58:34;;;;;;;15.53;6.62;;;;;;;5.33;100.00;100324.56;5089836;55;1141031;-68
2023/01/11 14:03:56;;;;;;;14.87;5.85;;;;;;;5.38;100.00;100317.70;5093220;55;1140940;-71
2023/01/11 14:09:49;;;;;;;17.30;7.30;;;;;;;5.39;100.00;100311.53;5077037;56;1138668;-69
2023/01/11 14:15:08;;;;;;;12.70;6.60;;;;;;;5.41;100.00;100301.80;4962892;56;1138917;-65
2023/01/11 14:20:24;;;;;;;33.10;13.27;;;;;;;5.41;100.00;100301.80;4958736;57;1140788;-74
2023/01/11 14:25:34;;;;;;;37.73;14.90;;;;;;;5.42;100.00;100304.80;4969103;57;1140910;-69
2023/01/11 14:31:28;;;;;;;15.93;7.65;;;;;;;5.41;100.00;100309.20;4993397;56;1140943;-67
2023/01/11 14:36:59;;;;;;;25.30;11.90;;;;;;;5.41;100.00;100301.33;5053579;56;1138782;-70
2023/01/11 14:42:15;;;;;;;29.07;12.33;;;;;;;5.42;100.00;100285.97;4873693;58;1141034;-71
2023/01/11 14:47:58;;;;;;;15.50;8.43;;;;;;;5.42;100.00;100285.13;4950546;57;1140782;-69
2023/01/11 14:53:06;;;;;;;12.47;6.00;;;;;;;5.42;100.00;100281.20;4945663;57;1138964;-68
2023/01/11 14:58:30;;;;;;;20.23;7.80;;;;;;;5.44;100.00;100272.30;4874376;57;1140914;-68
2023/01/11 15:03:42;;;;;;;36.55;12.88;;;;;;;5.45;100.00;100273.15;4963430;57;1138815;-69
2023/01/11 15:08:54;;;;;;;18.67;8.23;;;;;;;5.44;100.00;100271.46;4942390;57;1140981;-71
2023/01/11 15:14:23;;;;;;;16.62;5.78;;;;;;;5.46;100.00;100261.72;5051006;55;1141252;-69
2023/01/11 15:19:33;;;;;;;18.73;7.10;;;;;;;5.47;100.00;100257.70;5106514;55;1139017;-67
2023/01/11 15:24:42;;;;;;;39.33;15.00;;;;;;;5.46;100.00;100257.32;4912599;57;1138898;-67
2023/01/11 15:29:55;;;;;;;47.97;19.17;;;;;;;5.46;100.00;100248.14;5121840;55;1140905;-70
2023/01/11 15:35:26;;;;;;;21.33;8.67;;;;;;;5.48;100.00;100245.43;5008203;56;1140755;-68
2023/01/11 15:40:36;;;;;;;26.37;11.97;;;;;;;5.50;100.00;100252.24;5096606;56;1138734;-73
2023/01/11 15:52:14;;;;;;;25.62;11.95;;;;;;;5.51;100.00;100238.66;5087689;56;1141330;-69
2023/01/11 15:57:39;;;;;;;25.68;12.55;;;;;;;5.51;100.00;100237.34;5034664;57;1140938;-69
2023/01/11 16:03:11;;;;;;;34.93;12.20;;;;;;;5.51;100.00;100235.57;5024305;56;1140921;-71
2023/01/11 16:08:36;;;;;;;19.37;8.73;;;;;;;5.58;100.00;100230.80;5070877;56;1143086;-70
2023/01/11 16:14:16;;;;;;;32.90;12.23;;;;;;;5.59;100.00;100235.11;5109961;55;1138968;-67
2023/01/11 16:19:24;;;;;;;14.10;7.35;;;;;;;5.59;100.00;100235.11;5097667;55;1140905;-70
2023/01/11 16:24:34;;;;;;;17.57;7.73;;;;;;;5.59;100.00;100228.09;5104405;55;1138753;-66
2023/01/11 16:29:40;;;;;;;17.23;8.70;;;;;;;5.61;100.00;100227.53;5087929;55;1141180;-68
2023/01/11 16:34:50;;;;;;;25.20;9.67;;;;;;;5.64;100.00;100221.25;5033462;56;1138964;-72
2023/01/11 16:40:01;;;;;;;29.53;13.17;;;;;;;5.63;100.00;100229.59;5037891;56;1138826;-68
2023/01/11 16:45:12;;;;;;;21.12;10.70;;;;;;;5.65;100.00;100236.06;5044299;56;1140913;-70
2023/01/11 16:50:27;;;;;;;33.00;14.53;;;;;;;5.66;100.00;100231.16;5099567;55;1140716;-70
2023/01/11 16:55:36;;;;;;;43.60;19.27;;;;;;;5.66;100.00;100229.38;5077942;55;1140910;-70
2023/01/11 17:00:42;;;;;;;47.17;20.97;;;;;;;5.69;100.00;100226.20;5046578;56;1141330;-68
2023/01/11 17:06:14;;;;;;;64.87;25.07;;;;;;;5.69;100.00;100231.44;5070118;56;1140773;-69
2023/01/11 17:11:29;;;;;;;198.97;51.30;;;;;;;5.72;100.00;100238.66;5000271;56;1142989;-69
2023/01/11 17:16:50;;;;;;;36.37;14.20;;;;;;;5.74;100.00;100234.17;4973024;57;1143003;-69
2023/01/11 17:22:06;;;;;;;33.53;11.53;;;;;;;5.75;100.00;100237.17;4949859;57;1140789;-69
2023/01/11 17:27:25;;;;;;;21.85;7.95;;;;;;;5.73;100.00;100229.02;5064913;56;1142902;-71
2023/01/11 17:32:49;;;;;;;25.50;9.00;;;;;;;5.73;100.00;100229.02;5011358;56;1140848;-68
2023/01/11 17:37:58;;;;;;;19.87;7.50;;;;;;;5.73;100.00;100229.02;5091256;56;1140988;-73
2023/01/11 17:48:51;;;;;;;23.57;10.50;;;;;;;5.66;100.00;100233.31;5053074;56;1141095;-68
2023/01/11 17:53:57;;;;;;;23.47;9.50;;;;;;;5.61;100.00;100226.69;5023822;56;1142992;-70
2023/01/11 17:59:20;;;;;;;24.27;10.47;;;;;;;5.55;100.00;100220.02;4992960;57;1140828;-69
2023/01/11 18:04:27;;;;;;;23.23;10.23;;;;;;;5.51;100.00;100218.98;4842627;58;1142940;-72
2023/01/11 18:09:37;;;;;;;23.63;8.73;;;;;;;5.47;100.00;100221.45;4846119;58;1143128;-71
2023/01/11 18:14:50;;;;;;;29.35;12.30;;;;;;;5.42;100.00;100216.94;4846232;59;1141041;-72
2023/01/11 18:19:57;;;;;;;46.97;24.13;;;;;;;5.41;100.00;100212.16;4809755;59;1143007;-71
2023/01/11 18:25:24;;;;;;;20.53;13.93;;;;;;;5.40;100.00;100212.25;4901518;57;1143059;-71
2023/01/11 18:30:36;;;;;;;20.15;11.60;;;;;;;5.41;100.00;100213.94;4928133;58;1143092;-70
2023/01/11 18:35:48;;;;;;;26.48;11.08;;;;;;;5.45;100.00;100209.73;4928984;57;1143086;-66
2023/01/11 18:40:55;;;;;;;33.87;13.13;;;;;;;5.47;100.00;100213.58;5072577;56;1142998;-69
2023/01/11 18:46:00;;;;;;;30.37;11.23;;;;;;;5.47;100.00;100215.73;5065262;56;1142974;-72
2023/01/11 18:51:06;;;;;;;33.87;13.60;;;;;;;5.49;100.00;100215.64;5036616;57;1142880;-71
2023/01/11 18:56:15;;;;;;;83.60;24.13;;;;;;;5.50;100.00;100214.20;5073212;56;1143151;-72
2023/01/11 19:01:20;;;;;;;25.12;10.20;;;;;;;5.55;100.00;100223.12;5037024;56;1142975;-70
2023/01/11 19:06:27;;;;;;;142.50;29.72;;;;;;;5.57;100.00;100222.56;5045480;56;1143108;-69
2023/01/11 19:11:32;;;;;;;40.67;10.93;;;;;;;5.58;100.00;100220.31;5103422;56;1145131;-70
2023/01/11 19:16:38;;;;;;;21.87;11.07;;;;;;;5.63;100.00;100219.57;5121804;56;1143006;-72
2023/01/11 19:21:44;;;;;;;22.93;11.70;;;;;;;5.67;100.00;100221.04;5053502;56;1142901;-68
2023/01/11 19:26:51;;;;;;;23.27;10.73;;;;;;;5.68;100.00;100219.26;5037173;57;1142907;-68
2023/01/11 19:31:56;;;;;;;13.20;8.30;;;;;;;5.69;100.00;100215.23;5057283;56;1143016;-69
2023/01/11 19:37:02;;;;;;;10.87;7.03;;;;;;;5.72;100.00;100225.55;5061832;56;1141031;-68
2023/01/11 19:42:08;;;;;;;13.23;6.67;;;;;;;5.73;100.00;100221.98;5101762;56;1140843;-72
2023/01/11 19:47:14;;;;;;;13.23;8.93;;;;;;;5.73;100.00;100221.98;5135634;56;1138782;-71
2023/01/11 19:52:20;;;;;;;15.50;7.90;;;;;;;5.75;100.00;100216.17;5127711;56;1140744;-74
2023/01/11 19:57:27;;;;;;;11.50;7.53;;;;;;;5.75;100.00;100218.80;5078696;56;1140952;-66
2023/01/11 20:02:33;;;;;;;11.40;8.67;;;;;;;5.76;100.00;100217.86;5045021;56;1141041;-69
2023/01/11 20:07:38;;;;;;;12.23;8.73;;;;;;;5.79;100.00;100224.70;5095850;56;1138802;-73
2023/01/11 20:12:44;;;;;;;12.10;9.20;;;;;;;5.79;100.00;100231.27;5044435;56;1140973;-71
2023/01/11 20:17:50;;;;;;;12.37;7.73;;;;;;;5.81;100.00;100231.98;5043069;57;1140803;-72
2023/01/11 20:22:56;;;;;;;13.87;9.37;;;;;;;5.82;100.00;100248.95;5109225;56;1140966;-71
2023/01/11 20:28:02;;;;;;;12.73;8.73;;;;;;;5.84;100.00;100243.61;5126505;56;1140866;-69
2023/01/11 20:33:08;;;;;;;13.27;9.27;;;;;;;5.85;100.00;100242.20;5069943;56;1140932;-67
2023/01/11 20:38:15;;;;;;;15.37;8.63;;;;;;;5.87;100.00;100248.20;5130301;56;1140980;-69
2023/01/11 20:43:21;;;;;;;13.58;8.58;;;;;;;5.90;100.00;100253.77;5114310;56;1140860;-72
2023/01/11 20:48:26;;;;;;;12.70;8.83;;;;;;;5.92;100.00;100257.98;5046986;56;1141026;-67
2023/01/11 20:53:33;;;;;;;11.77;7.53;;;;;;;5.93;100.00;100262.30;5037391;57;1140926;-69
2023/01/11 20:58:39;;;;;;;9.60;6.27;;;;;;;5.96;100.00;100269.96;5070491;56;1140792;-70
2023/01/11 21:03:45;;;;;;;11.03;6.93;;;;;;;5.97;100.00;100256.37;5045367;56;1138824;-71
2023/01/11 21:08:59;;;;;;;8.97;6.77;;;;;;;6.02;100.00;100267.90;5071048;56;1140874;-70
2023/01/11 21:14:10;;;;;;;7.93;5.93;;;;;;;6.03;100.00;100274.84;4936191;58;1138971;-67
2023/01/11 21:19:14;;;;;;;7.10;5.90;;;;;;;6.07;100.00;100281.59;5059974;56;1138988;-69
2023/01/11 21:24:20;;;;;;;7.33;5.60;;;;;;;6.08;100.00;100279.34;5037188;57;1138788;-74
2023/01/11 21:29:26;;;;;;;10.25;6.12;;;;;;;6.13;100.00;100285.13;5056832;57;1138826;-72
2023/01/11 21:34:36;;;;;;;9.63;6.03;;;;;;;6.14;100.00;100273.22;5048908;56;1141085;-73
2023/01/11 21:39:47;;;;;;;40.25;27.77;;;;;;;6.16;100.00;100283.63;5042233;56;1138759;-68
2023/01/11 21:44:53;;;;;;;7.70;5.37;;;;;;;6.18;100.00;100294.41;5074419;56;1142893;-68
2023/01/11 21:49:59;;;;;;;9.20;6.17;;;;;;;6.18;100.00;100303.60;5039157;57;1139120;-71
2023/01/11 21:55:06;;;;;;;8.67;6.47;;;;;;;6.21;100.00;100309.98;5043049;57;1138889;-71
2023/01/11 22:00:13;;;;;;;8.88;6.12;;;;;;;6.21;100.00;100313.92;5079126;57;1138832;-73
2023/01/11 22:05:19;;;;;;;6.53;5.47;;;;;;;6.23;100.00;100323.02;5040552;57;1138759;-72
2023/01/11 22:10:25;;;;;;;8.67;6.77;;;;;;;6.26;100.00;100332.84;5126408;56;1138893;-75
2023/01/11 22:15:31;;;;;;;11.20;6.57;;;;;;;6.28;100.00;100332.27;5127808;56;1138949;-72
2023/01/11 22:20:37;;;;;;;8.43;6.70;;;;;;;6.29;100.00;100339.69;5102702;56;1141066;-72
2023/01/11 22:25:42;;;;;;;12.67;7.80;;;;;;;6.32;100.00;100336.41;5042413;57;1138919;-70
2023/01/11 22:30:50;;;;;;;11.75;7.55;;;;;;;6.34;100.00;100335.84;5041736;57;1140960;-75
2023/01/11 22:35:56;;;;;;;13.37;9.33;;;;;;;6.34;100.00;100333.22;5075130;56;1141078;-71
2023/01/11 22:41:02;;;;;;;10.33;8.43;;;;;;;6.37;100.00;100330.03;5127761;56;1140742;-71
2023/01/11 22:46:09;;;;;;;10.87;8.73;;;;;;;6.39;100.00;100336.88;5127164;56;1140721;-69
2023/01/11 22:51:17;;;;;;;10.80;8.33;;;;;;;6.43;100.00;100345.37;5147859;56;1141023;-70
2023/01/11 22:56:28;;;;;;;11.83;8.07;;;;;;;6.44;100.00;100343.13;5122450;56;1141031;-71
2023/01/11 23:01:39;;;;;;;19.97;11.73;;;;;;;6.47;100.00;100349.51;5123897;56;1140894;-75
2023/01/11 23:06:45;;;;;;;14.80;9.17;;;;;;;6.50;100.00;100363.30;5090257;56;1143090;-72
2023/01/11 23:17:14;;;;;;;14.78;8.23;;;;;;;6.57;100.00;100369.03;5042631;56;1140925;-73
2023/01/11 23:22:20;;;;;;;13.72;8.88;;;;;;;6.58;100.00;100371.53;5114370;56;1141032;-69
2023/01/11 23:27:26;;;;;;;35.65;16.02;;;;;;;6.61;100.00;100379.22;5142653;56;1140917;-72
2023/01/11 23:32:31;;;;;;;33.13;11.33;;;;;;;6.62;100.00;100379.59;5121453;56;1142905;-72
2023/01/11 23:37:38;;;;;;;12.78;9.00;;;;;;;6.62;100.00;100379.59;5083098;56;1143366;-74
2023/01/11 23:42:44;;;;;;;10.97;8.70;;;;;;;6.65;100.00;100386.45;5058655;56;1140834;-68
2023/01/11 23:47:50;;;;;;;18.13;10.10;;;;;;;6.66;100.00;100382.87;5122224;56;1140936;-71
2023/01/11 23:52:56;;;;;;;20.63;14.73;;;;;;;6.67;100.00;100390.67;5074832;56;1143001;-70
2023/01/11 23:58:10;;;;;;;23.80;9.87;;;;;;;6.69;100.00;100382.70;5146224;56;1142934;-72
